createdAt,value
2022-10-21T00:02:07.405Z,101121.56
2022-10-21T00:07:31.908Z,101130.84
2022-10-21T00:12:56.910Z,101145.84
2022-10-21T00:18:23.085Z,101146.56
2022-10-21T00:23:49.899Z,101152.13
2022-10-21T00:29:13.791Z,101161.91
2022-10-21T00:34:39.104Z,101167.00
2022-10-21T00:40:03.611Z,101170.25
2022-10-21T00:45:29.817Z,101180.25
2022-10-21T00:51:01.669Z,101176.69
2022-10-21T00:56:29.979Z,101178.94
2022-10-21T01:01:55.417Z,101180.59
2022-10-21T01:07:21.870Z,101195.47
2022-10-21T01:13:05.125Z,101213.69
2022-10-21T01:18:37.261Z,101213.03
2022-10-21T01:24:49.055Z,101225.19
2022-10-21T01:30:31.644Z,101241.34
2022-10-21T01:36:05.964Z,101246.75
2022-10-21T01:41:39.112Z,101255.38
2022-10-21T01:47:13.082Z,101266.34
2022-10-21T01:52:38.855Z,101272.41
2022-10-21T01:58:05.979Z,101280.31
2022-10-21T02:03:35.887Z,101286.91
2022-10-21T02:09:00.132Z,101296.03
2022-10-21T02:14:30.566Z,101299.75
2022-10-21T02:19:59.246Z,101304.28
2022-10-21T02:25:26.578Z,101310.53
2022-10-21T02:31:03.004Z,101313.91
2022-10-21T02:36:41.929Z,101317.25
2022-10-21T02:42:11.691Z,101323.00
2022-10-21T02:47:37.986Z,101329.25
2022-10-21T02:53:04.203Z,101332.13
2022-10-21T02:58:29.479Z,101333.78
2022-10-21T03:03:53.444Z,101348.63
2022-10-21T03:09:20.035Z,101347.09
2022-10-21T03:14:43.844Z,101350.66
2022-10-21T03:20:08.952Z,101350.81
2022-10-21T03:25:35.839Z,101364.00
2022-10-21T03:31:01.340Z,101371.06
2022-10-21T03:36:25.684Z,101379.34
2022-10-21T03:41:51.601Z,101390.13
2022-10-21T03:47:15.350Z,101383.03
2022-10-21T03:52:42.002Z,101384.72
2022-10-21T03:58:07.358Z,101383.03
2022-10-21T04:03:31.470Z,101376.31
2022-10-21T04:08:56.102Z,101373.59
2022-10-21T04:14:21.685Z,101390.97
2022-10-21T04:19:46.648Z,101400.44
2022-10-21T04:25:11.268Z,101404.97
2022-10-21T04:30:37.663Z,101413.06
2022-10-21T04:36:02.168Z,101411.38
2022-10-21T04:41:27.231Z,101423.84
2022-10-21T04:46:53.770Z,101423.00
2022-10-21T04:52:18.853Z,101437.53
2022-10-21T04:57:43.565Z,101446.78
2022-10-21T05:03:09.713Z,101463.28
2022-10-21T05:08:34.130Z,101457.72
2022-10-21T05:13:58.901Z,101468.00
2022-10-21T05:19:28.934Z,101474.22
2022-10-21T05:24:58.227Z,101485.19
2022-10-21T05:30:27.083Z,101505.59
2022-10-21T05:36:01.073Z,101508.78
2022-10-21T05:41:25.189Z,101509.94
2022-10-21T05:46:49.457Z,101514.47
2022-10-21T05:52:15.529Z,101517.53
2022-10-21T05:57:40.670Z,101524.06
2022-10-21T06:03:08.254Z,101530.66
2022-10-21T06:08:36.225Z,101535.00
2022-10-21T06:14:00.717Z,101545.13
2022-10-21T06:19:24.943Z,101548.84
2022-10-21T06:24:51.070Z,101542.38
2022-10-21T06:30:15.341Z,101546.84
2022-10-21T06:35:41.330Z,101542.38
2022-10-21T06:41:12.374Z,101556.66
2022-10-21T06:46:37.738Z,101550.66
2022-10-21T06:52:02.618Z,101552.81
2022-10-21T06:57:28.828Z,101546.78
2022-10-21T07:02:52.880Z,101542.16
2022-10-21T07:08:19.811Z,101536.41
2022-10-21T07:13:47.655Z,101529.06
2022-10-21T07:19:12.897Z,101530.41
2022-10-21T07:24:38.131Z,101530.97
2022-10-21T07:30:04.107Z,101543.53
2022-10-21T07:35:28.485Z,101544.72
2022-10-21T07:40:53.409Z,101551.25
2022-10-21T07:46:21.037Z,101555.78
2022-10-21T07:51:46.302Z,101554.84
2022-10-21T07:57:10.800Z,101556.72
2022-10-21T08:02:37.966Z,101557.25
2022-10-21T08:08:04.149Z,101570.00
2022-10-21T08:13:28.880Z,101591.41
2022-10-21T08:18:55.946Z,101600.84
2022-10-21T08:24:21.363Z,101618.78
2022-10-21T08:29:45.796Z,101606.16
2022-10-21T08:35:12.054Z,101608.63
2022-10-21T08:40:41.239Z,101602.25
2022-10-21T08:46:09.389Z,101598.09
2022-10-21T08:51:38.996Z,101603.31
2022-10-21T08:57:03.286Z,101592.16
2022-10-21T09:02:51.386Z,101599.16
2022-10-21T09:08:25.687Z,101598.94
2022-10-21T09:20:10.375Z,101625.88
2022-10-21T09:25:49.996Z,101612.31
2022-10-21T09:31:18.261Z,101621.09
2022-10-21T09:36:48.797Z,101613.25
2022-10-21T09:42:29.589Z,101622.03
2022-10-21T09:48:01.892Z,101607.81
2022-10-21T09:53:32.219Z,101625.38
2022-10-21T09:59:08.127Z,101632.38
2022-10-21T10:04:34.811Z,101628.91
2022-10-21T10:10:25.568Z,101627.06
2022-10-21T10:15:51.533Z,101612.94
2022-10-21T10:21:17.802Z,101607.91
2022-10-21T10:26:42.437Z,101615.75
2022-10-21T10:32:14.043Z,101615.13
2022-10-21T10:37:39.479Z,101613.81
2022-10-21T10:43:14.613Z,101611.66
2022-10-21T10:48:44.515Z,101614.19
2022-10-21T10:54:18.489Z,101600.84
2022-10-21T10:59:45.800Z,101617.22
2022-10-21T11:05:21.545Z,101616.78
2022-10-21T11:10:48.753Z,101616.94
2022-10-21T11:16:45.103Z,101616.41
2022-10-21T11:22:29.804Z,101625.41
2022-10-21T11:28:10.240Z,101619.47
2022-10-21T11:33:44.434Z,101619.53
2022-10-21T11:39:34.945Z,101616.63
2022-10-21T11:45:16.977Z,101624.44
2022-10-21T11:50:47.852Z,101631.44
2022-10-21T11:56:21.623Z,101631.59
2022-10-21T12:01:58.065Z,101630.91
2022-10-21T12:07:43.666Z,101634.28
2022-10-21T12:13:14.848Z,101638.16
2022-10-21T12:18:45.172Z,101631.13
2022-10-21T12:24:21.811Z,101618.94
2022-10-21T12:30:02.165Z,101634.13
2022-10-21T12:35:29.026Z,101641.91
2022-10-21T12:41:36.882Z,101635.19
2022-10-21T12:47:06.619Z,101644.25
2022-10-21T12:52:31.660Z,101640.88
2022-10-21T12:58:01.733Z,101647.03
2022-10-21T13:03:56.167Z,101643.66
2022-10-21T13:09:35.833Z,101643.13
2022-10-21T13:15:01.241Z,101640.09
2022-10-21T13:20:49.120Z,101648.78
2022-10-21T13:26:21.596Z,101652.31
2022-10-21T13:31:45.966Z,101651.53
2022-10-21T13:37:16.710Z,101651.88
2022-10-21T13:42:42.618Z,101640.28
2022-10-21T13:48:13.701Z,101633.53
2022-10-21T13:53:45.589Z,101645.03
2022-10-21T13:59:23.387Z,101643.88
2022-10-21T14:04:48.696Z,101647.22
2022-10-21T14:10:16.990Z,101641.94
2022-10-21T14:15:45.547Z,101659.75
2022-10-21T14:21:19.426Z,101658.25
2022-10-21T14:26:46.622Z,101658.00
2022-10-21T14:32:15.853Z,101654.94
2022-10-21T14:37:45.169Z,101667.16
2022-10-21T14:43:21.309Z,101674.44
2022-10-21T14:48:49.274Z,101673.75
2022-10-21T14:54:27.280Z,101666.41
2022-10-21T14:59:53.056Z,101682.94
2022-10-21T15:05:35.967Z,101693.81
2022-10-21T15:11:33.135Z,101701.34
2022-10-21T15:17:04.308Z,101710.44
2022-10-21T15:22:34.016Z,101710.72
2022-10-21T15:28:00.147Z,101706.69
2022-10-21T15:33:27.187Z,101704.72
2022-10-21T15:38:51.677Z,101715.94
2022-10-21T15:44:22.083Z,101718.38
2022-10-21T15:49:49.366Z,101733.94
2022-10-21T15:55:14.344Z,101737.66
2022-10-21T16:00:40.934Z,101744.09
2022-10-21T16:06:07.412Z,101746.78
2022-10-21T16:11:40.771Z,101770.09
2022-10-21T16:17:05.710Z,101775.13
2022-10-21T16:22:31.756Z,101773.63
2022-10-21T16:27:57.548Z,101780.88
2022-10-21T16:33:21.664Z,101784.94
2022-10-21T16:38:48.725Z,101789.44
2022-10-21T16:44:14.904Z,101793.66
2022-10-21T16:49:39.057Z,101799.41
2022-10-21T16:55:06.036Z,101788.22
2022-10-21T17:00:30.791Z,101785.34
2022-10-21T17:05:56.727Z,101781.00
2022-10-21T17:11:25.397Z,101786.38
2022-10-21T17:16:50.520Z,101784.34
2022-10-21T17:22:17.085Z,101786.72
2022-10-21T17:27:42.989Z,101782.66
2022-10-21T17:33:10.619Z,101780.63
2022-10-21T17:38:38.348Z,101770.25
2022-10-21T17:44:04.549Z,101777.75
2022-10-21T17:49:29.082Z,101777.63
2022-10-21T17:54:54.437Z,101779.63
2022-10-21T18:00:20.451Z,101778.94
2022-10-21T18:05:44.936Z,101770.00
2022-10-21T18:11:10.627Z,101783.13
2022-10-21T18:16:36.687Z,101788.28
2022-10-21T18:22:02.796Z,101789.81
2022-10-21T18:27:27.150Z,101804.44
2022-10-21T18:32:53.051Z,101801.44
2022-10-21T18:38:20.108Z,101797.88
2022-10-21T18:43:48.381Z,101812.50
2022-10-21T18:49:18.410Z,101814.69
2022-10-21T18:54:44.226Z,101827.53
2022-10-21T19:00:09.485Z,101828.47
2022-10-21T19:05:35.086Z,101835.81
2022-10-21T19:11:00.785Z,101833.59
2022-10-21T19:16:26.551Z,101849.72
2022-10-21T19:21:53.173Z,101838.94
2022-10-21T19:27:17.019Z,101846.16
2022-10-21T19:32:41.606Z,101853.41
2022-10-21T19:38:11.615Z,101860.75
2022-10-21T19:43:45.573Z,101863.03
2022-10-21T19:49:11.212Z,101860.47
2022-10-21T19:54:36.592Z,101861.59
2022-10-21T20:00:01.280Z,101862.19
2022-10-21T20:05:41.663Z,101862.44
2022-10-21T20:11:10.012Z,101870.50
2022-10-21T20:16:41.941Z,101866.97
2022-10-21T20:22:07.567Z,101867.09
2022-10-21T20:27:32.818Z,101859.22
2022-10-21T20:32:58.932Z,101869.06
2022-10-21T20:38:24.786Z,101858.34
2022-10-21T20:43:51.775Z,101869.47
2022-10-21T20:49:16.735Z,101872.28
2022-10-21T20:54:41.583Z,101873.69
2022-10-21T21:00:08.377Z,101862.97
2022-10-21T21:05:38.163Z,101859.28
2022-10-21T21:11:05.648Z,101846.84
2022-10-21T21:16:32.038Z,101846.56
2022-10-21T21:21:57.006Z,101850.53
2022-10-21T21:27:21.943Z,101859.84
2022-10-21T21:32:49.516Z,101852.78
2022-10-21T21:38:14.262Z,101839.78
2022-10-21T21:43:41.532Z,101843.91
2022-10-21T21:49:08.186Z,101836.53
2022-10-21T21:54:33.878Z,101838.41
2022-10-21T21:59:59.077Z,101833.03
2022-10-21T22:05:27.044Z,101842.63
2022-10-21T22:10:53.483Z,101843.47
2022-10-21T22:16:19.881Z,101844.88
2022-10-21T22:21:45.381Z,101851.53
2022-10-21T22:27:09.766Z,101852.50
2022-10-21T22:32:34.209Z,101844.88
2022-10-21T22:37:59.947Z,101843.22
2022-10-21T22:43:24.747Z,101844.59
2022-10-21T22:48:56.676Z,101853.34
2022-10-21T22:54:46.561Z,101850.28
2022-10-21T23:00:10.346Z,101848.31
2022-10-21T23:05:34.514Z,101846.88
2022-10-21T23:11:00.022Z,101846.75
2022-10-21T23:16:26.921Z,101850.84
2022-10-21T23:21:51.272Z,101844.19
2022-10-21T23:27:17.910Z,101843.22
2022-10-21T23:32:42.158Z,101838.69
2022-10-21T23:38:06.450Z,101837.00
2022-10-21T23:43:36.085Z,101834.75
2022-10-21T23:49:00.203Z,101836.28
2022-10-21T23:54:24.610Z,101830.50
2022-10-21T23:59:50.853Z,101832.19
